sensor_id;sensor_type;location;lat;lon;timestamp;P1;durP1;ratioP1;P2;durP2;ratioP2
13795;SDS011;40911;51.552;9.874;2023-05-10T00:05:06;4.20;;;2.65;;
13795;SDS011;40911;51.552;9.874;2023-05-10T00:07:28;5.25;;;3.00;;
13795;SDS011;40911;51.552;9.874;2023-05-10T00:09:50;5.18;;;2.80;;
13795;SDS011;40911;51.552;9.874;2023-05-10T00:14:33;3.08;;;2.50;;
13795;SDS011;40911;51.552;9.874;2023-05-10T00:19:16;4.82;;;2.90;;
13795;SDS011;40911;51.552;9.874;2023-05-10T00:21:39;7.10;;;2.55;;
13795;SDS011;40911;51.552;9.874;2023-05-10T00:24:01;4.93;;;2.80;;
13795;SDS011;40911;51.552;9.874;2023-05-10T00:26:23;3.65;;;2.70;;
13795;SDS011;40911;51.552;9.874;2023-05-10T00:28:44;2.90;;;2.65;;
13795;SDS011;40911;51.552;9.874;2023-05-10T00:33:27;3.30;;;3.00;;
13795;SDS011;40911;51.552;9.874;2023-05-10T00:38:12;5.35;;;2.80;;
13795;SDS011;40911;51.552;9.874;2023-05-10T00:40:35;5.47;;;2.97;;
13795;SDS011;40911;51.552;9.874;2023-05-10T00:42:57;4.10;;;2.67;;
13795;SDS011;40911;51.552;9.874;2023-05-10T00:45:19;3.25;;;2.95;;
13795;SDS011;40911;51.552;9.874;2023-05-10T00:47:41;3.10;;;2.70;;
13795;SDS011;40911;51.552;9.874;2023-05-10T00:50:02;2.97;;;2.60;;
13795;SDS011;40911;51.552;9.874;2023-05-10T00:52:26;4.40;;;2.65;;
13795;SDS011;40911;51.552;9.874;2023-05-10T00:57:10;6.03;;;2.95;;
13795;SDS011;40911;51.552;9.874;2023-05-10T00:59:32;3.70;;;2.70;;
13795;SDS011;40911;51.552;9.874;2023-05-10T01:04:15;4.32;;;2.60;;
13795;SDS011;40911;51.552;9.874;2023-05-10T01:08:58;5.50;;;2.92;;
13795;SDS011;40911;51.552;9.874;2023-05-10T01:13:43;5.72;;;2.88;;
13795;SDS011;40911;51.552;9.874;2023-05-10T01:16:11;4.68;;;2.90;;
13795;SDS011;40911;51.552;9.874;2023-05-10T01:18:35;4.82;;;3.20;;
13795;SDS011;40911;51.552;9.874;2023-05-10T01:21:01;3.35;;;2.80;;
13795;SDS011;40911;51.552;9.874;2023-05-10T01:32:09;3.78;;;3.03;;
13795;SDS011;40911;51.552;9.874;2023-05-10T01:34:47;6.32;;;3.10;;
13795;SDS011;40911;51.552;9.874;2023-05-10T01:37:17;4.05;;;2.90;;
13795;SDS011;40911;51.552;9.874;2023-05-10T01:39:43;5.47;;;3.28;;
13795;SDS011;40911;51.552;9.874;2023-05-10T01:42:08;5.80;;;2.97;;
13795;SDS011;40911;51.552;9.874;2023-05-10T01:44:35;5.45;;;3.28;;
13795;SDS011;40911;51.552;9.874;2023-05-10T01:47:04;5.93;;;3.17;;
13795;SDS011;40911;51.552;9.874;2023-05-10T01:49:32;3.65;;;3.00;;
13795;SDS011;40911;51.552;9.874;2023-05-10T01:51:59;5.00;;;2.80;;
13795;SDS011;40911;51.552;9.874;2023-05-10T01:54:25;6.15;;;3.08;;
13795;SDS011;40911;51.552;9.874;2023-05-10T01:56:50;3.80;;;3.00;;
13795;SDS011;40911;51.552;9.874;2023-05-10T01:59:18;3.53;;;3.17;;
13795;SDS011;40911;51.552;9.874;2023-05-10T02:01:41;5.30;;;3.10;;
13795;SDS011;40911;51.552;9.874;2023-05-10T02:04:03;3.85;;;2.92;;
13795;SDS011;40911;51.552;9.874;2023-05-10T02:06:29;3.20;;;2.95;;
13795;SDS011;40911;51.552;9.874;2023-05-10T02:08:52;4.55;;;3.10;;
13795;SDS011;40911;51.552;9.874;2023-05-10T02:11:15;4.47;;;3.08;;
13795;SDS011;40911;51.552;9.874;2023-05-10T02:13:41;3.55;;;3.22;;
13795;SDS011;40911;51.552;9.874;2023-05-10T02:16:05;3.72;;;3.40;;
13795;SDS011;40911;51.552;9.874;2023-05-10T02:18:28;4.10;;;3.10;;
13795;SDS011;40911;51.552;9.874;2023-05-10T02:20:51;4.05;;;3.20;;
13795;SDS011;40911;51.552;9.874;2023-05-10T02:23:16;5.45;;;3.17;;
13795;SDS011;40911;51.552;9.874;2023-05-10T02:25:38;4.15;;;2.90;;
13795;SDS011;40911;51.552;9.874;2023-05-10T02:28:02;3.78;;;3.15;;
13795;SDS011;40911;51.552;9.874;2023-05-10T02:30:25;4.10;;;3.08;;
13795;SDS011;40911;51.552;9.874;2023-05-10T02:32:47;4.05;;;3.20;;
13795;SDS011;40911;51.552;9.874;2023-05-10T02:35:10;4.32;;;3.00;;
13795;SDS011;40911;51.552;9.874;2023-05-10T02:37:33;4.15;;;3.60;;
13795;SDS011;40911;51.552;9.874;2023-05-10T02:39:59;3.72;;;3.25;;
13795;SDS011;40911;51.552;9.874;2023-05-10T02:42:23;3.95;;;3.28;;
13795;SDS011;40911;51.552;9.874;2023-05-10T02:44:48;3.60;;;3.30;;
13795;SDS011;40911;51.552;9.874;2023-05-10T02:47:11;3.90;;;3.50;;
13795;SDS011;40911;51.552;9.874;2023-05-10T02:49:33;5.07;;;3.30;;
13795;SDS011;40911;51.552;9.874;2023-05-10T02:51:55;4.40;;;3.53;;
13795;SDS011;40911;51.552;9.874;2023-05-10T02:54:22;5.88;;;3.75;;
13795;SDS011;40911;51.552;9.874;2023-05-10T02:56:51;3.65;;;3.03;;
13795;SDS011;40911;51.552;9.874;2023-05-10T02:59:17;5.72;;;3.53;;
13795;SDS011;40911;51.552;9.874;2023-05-10T03:01:39;3.97;;;3.58;;
13795;SDS011;40911;51.552;9.874;2023-05-10T03:04:00;6.20;;;3.75;;
13795;SDS011;40911;51.552;9.874;2023-05-10T03:06:22;4.88;;;3.80;;
13795;SDS011;40911;51.552;9.874;2023-05-10T03:11:15;4.03;;;3.72;;
13795;SDS011;40911;51.552;9.874;2023-05-10T03:13:48;4.63;;;3.80;;
13795;SDS011;40911;51.552;9.874;2023-05-10T03:16:24;5.35;;;4.57;;
13795;SDS011;40911;51.552;9.874;2023-05-10T03:18:50;6.68;;;4.05;;
13795;SDS011;40911;51.552;9.874;2023-05-10T03:21:17;5.03;;;3.97;;
13795;SDS011;40911;51.552;9.874;2023-05-10T03:23:43;4.18;;;3.72;;
13795;SDS011;40911;51.552;9.874;2023-05-10T03:26:07;5.80;;;4.05;;
13795;SDS011;40911;51.552;9.874;2023-05-10T03:28:29;5.63;;;4.35;;
13795;SDS011;40911;51.552;9.874;2023-05-10T03:30:53;6.47;;;4.57;;
13795;SDS011;40911;51.552;9.874;2023-05-10T03:33:16;8.38;;;4.50;;
13795;SDS011;40911;51.552;9.874;2023-05-10T03:35:38;5.65;;;4.97;;
13795;SDS011;40911;51.552;9.874;2023-05-10T03:37:59;5.90;;;4.65;;
13795;SDS011;40911;51.552;9.874;2023-05-10T03:40:21;6.05;;;4.43;;
13795;SDS011;40911;51.552;9.874;2023-05-10T03:45:05;6.07;;;4.63;;
13795;SDS011;40911;51.552;9.874;2023-05-10T03:47:29;5.22;;;4.72;;
13795;SDS011;40911;51.552;9.874;2023-05-10T03:49:50;5.72;;;4.78;;
13795;SDS011;40911;51.552;9.874;2023-05-10T03:52:12;5.85;;;5.10;;
13795;SDS011;40911;51.552;9.874;2023-05-10T03:54:33;5.97;;;5.00;;
13795;SDS011;40911;51.552;9.874;2023-05-10T03:56:55;5.28;;;4.78;;
13795;SDS011;40911;51.552;9.874;2023-05-10T03:59:16;7.43;;;5.20;;
13795;SDS011;40911;51.552;9.874;2023-05-10T04:01:38;6.93;;;5.15;;
13795;SDS011;40911;51.552;9.874;2023-05-10T04:04:01;9.95;;;5.68;;
13795;SDS011;40911;51.552;9.874;2023-05-10T04:06:23;7.20;;;4.88;;
13795;SDS011;40911;51.552;9.874;2023-05-10T04:11:06;7.75;;;5.30;;
13795;SDS011;40911;51.552;9.874;2023-05-10T04:13:28;6.85;;;5.18;;
13795;SDS011;40911;51.552;9.874;2023-05-10T04:15:50;7.28;;;5.65;;
13795;SDS011;40911;51.552;9.874;2023-05-10T04:18:11;6.20;;;4.97;;
13795;SDS011;40911;51.552;9.874;2023-05-10T04:20:34;6.30;;;5.60;;
13795;SDS011;40911;51.552;9.874;2023-05-10T04:22:56;7.28;;;6.00;;
13795;SDS011;40911;51.552;9.874;2023-05-10T04:25:18;5.93;;;4.97;;
13795;SDS011;40911;51.552;9.874;2023-05-10T04:30:01;6.07;;;5.47;;
13795;SDS011;40911;51.552;9.874;2023-05-10T04:32:24;8.00;;;6.13;;
13795;SDS011;40911;51.552;9.874;2023-05-10T04:34:45;8.70;;;5.72;;
13795;SDS011;40911;51.552;9.874;2023-05-10T04:37:08;7.22;;;5.75;;
13795;SDS011;40911;51.552;9.874;2023-05-10T04:39:30;8.07;;;6.13;;
13795;SDS011;40911;51.552;9.874;2023-05-10T04:41:52;7.65;;;5.70;;
13795;SDS011;40911;51.552;9.874;2023-05-10T04:44:13;8.82;;;5.88;;
13795;SDS011;40911;51.552;9.874;2023-05-10T04:46:35;8.27;;;6.20;;
13795;SDS011;40911;51.552;9.874;2023-05-10T04:51:18;11.23;;;6.75;;
13795;SDS011;40911;51.552;9.874;2023-05-10T04:53:41;7.15;;;6.18;;
13795;SDS011;40911;51.552;9.874;2023-05-10T04:56:03;7.05;;;6.25;;
13795;SDS011;40911;51.552;9.874;2023-05-10T04:58:25;9.48;;;6.65;;
13795;SDS011;40911;51.552;9.874;2023-05-10T05:00:47;12.05;;;7.00;;
13795;SDS011;40911;51.552;9.874;2023-05-10T05:03:08;11.75;;;6.63;;
13795;SDS011;40911;51.552;9.874;2023-05-10T05:05:30;11.27;;;6.65;;
13795;SDS011;40911;51.552;9.874;2023-05-10T05:10:15;11.02;;;6.40;;
13795;SDS011;40911;51.552;9.874;2023-05-10T05:12:36;10.93;;;6.53;;
13795;SDS011;40911;51.552;9.874;2023-05-10T05:14:58;9.57;;;6.22;;
13795;SDS011;40911;51.552;9.874;2023-05-10T05:19:41;9.65;;;5.70;;
13795;SDS011;40911;51.552;9.874;2023-05-10T05:22:03;12.30;;;6.07;;
13795;SDS011;40911;51.552;9.874;2023-05-10T05:26:47;9.52;;;5.82;;
13795;SDS011;40911;51.552;9.874;2023-05-10T05:29:09;9.77;;;6.15;;
13795;SDS011;40911;51.552;9.874;2023-05-10T05:31:30;8.00;;;5.78;;
13795;SDS011;40911;51.552;9.874;2023-05-10T05:33:52;8.30;;;5.80;;
13795;SDS011;40911;51.552;9.874;2023-05-10T05:38:35;14.75;;;6.00;;
13795;SDS011;40911;51.552;9.874;2023-05-10T05:40:57;9.80;;;6.82;;
13795;SDS011;40911;51.552;9.874;2023-05-10T05:43:20;10.98;;;5.90;;
13795;SDS011;40911;51.552;9.874;2023-05-10T05:45:42;10.88;;;6.50;;
13795;SDS011;40911;51.552;9.874;2023-05-10T05:48:04;7.97;;;6.28;;
13795;SDS011;40911;51.552;9.874;2023-05-10T05:50:26;10.35;;;6.40;;
13795;SDS011;40911;51.552;9.874;2023-05-10T05:52:47;11.00;;;6.57;;
13795;SDS011;40911;51.552;9.874;2023-05-10T05:55:09;8.60;;;6.60;;
13795;SDS011;40911;51.552;9.874;2023-05-10T05:57:31;7.55;;;6.13;;
13795;SDS011;40911;51.552;9.874;2023-05-10T06:02:16;9.63;;;6.60;;
13795;SDS011;40911;51.552;9.874;2023-05-10T06:04:37;9.45;;;6.88;;
13795;SDS011;40911;51.552;9.874;2023-05-10T06:06:59;9.50;;;6.97;;
13795;SDS011;40911;51.552;9.874;2023-05-10T06:11:43;15.20;;;7.50;;
13795;SDS011;40911;51.552;9.874;2023-05-10T06:14:05;9.43;;;7.30;;
13795;SDS011;40911;51.552;9.874;2023-05-10T06:16:29;9.38;;;7.10;;
13795;SDS011;40911;51.552;9.874;2023-05-10T06:18:50;9.23;;;7.22;;
13795;SDS011;40911;51.552;9.874;2023-05-10T06:21:12;11.93;;;8.02;;
13795;SDS011;40911;51.552;9.874;2023-05-10T06:23:34;10.95;;;7.22;;
13795;SDS011;40911;51.552;9.874;2023-05-10T06:25:56;12.02;;;8.27;;
13795;SDS011;40911;51.552;9.874;2023-05-10T06:28:18;9.85;;;8.13;;
13795;SDS011;40911;51.552;9.874;2023-05-10T06:33:03;7.93;;;6.35;;
13795;SDS011;40911;51.552;9.874;2023-05-10T06:35:24;10.45;;;6.57;;
13795;SDS011;40911;51.552;9.874;2023-05-10T06:40:08;6.28;;;5.57;;
13795;SDS011;40911;51.552;9.874;2023-05-10T06:42:30;2.25;;;2.05;;
13795;SDS011;40911;51.552;9.874;2023-05-10T06:44:51;1.85;;;1.67;;
13795;SDS011;40911;51.552;9.874;2023-05-10T06:47:13;2.55;;;2.10;;
13795;SDS011;40911;51.552;9.874;2023-05-10T06:49:36;2.20;;;2.10;;
13795;SDS011;40911;51.552;9.874;2023-05-10T06:51:58;1.30;;;1.20;;
13795;SDS011;40911;51.552;9.874;2023-05-10T06:54:19;1.38;;;1.30;;
13795;SDS011;40911;51.552;9.874;2023-05-10T06:56:41;1.50;;;1.35;;
13795;SDS011;40911;51.552;9.874;2023-05-10T07:01:24;1.20;;;1.20;;
13795;SDS011;40911;51.552;9.874;2023-05-10T07:03:46;1.80;;;1.17;;
13795;SDS011;40911;51.552;9.874;2023-05-10T07:06:08;1.98;;;1.20;;
13795;SDS011;40911;51.552;9.874;2023-05-10T07:08:30;0.95;;;0.95;;
13795;SDS011;40911;51.552;9.874;2023-05-10T07:13:13;1.13;;;1.10;;
13795;SDS011;40911;51.552;9.874;2023-05-10T07:15:35;1.55;;;1.02;;
13795;SDS011;40911;51.552;9.874;2023-05-10T07:20:18;1.88;;;1.05;;
13795;SDS011;40911;51.552;9.874;2023-05-10T07:25:02;1.00;;;1.00;;
13795;SDS011;40911;51.552;9.874;2023-05-10T07:27:24;1.00;;;1.00;;
13795;SDS011;40911;51.552;9.874;2023-05-10T07:29:46;1.08;;;1.02;;
13795;SDS011;40911;51.552;9.874;2023-05-10T07:32:08;1.25;;;1.00;;
13795;SDS011;40911;51.552;9.874;2023-05-10T07:34:30;1.00;;;1.00;;
13795;SDS011;40911;51.552;9.874;2023-05-10T07:36:51;0.90;;;0.90;;
13795;SDS011;40911;51.552;9.874;2023-05-10T07:39:14;2.92;;;1.17;;
13795;SDS011;40911;51.552;9.874;2023-05-10T07:41:36;1.80;;;1.10;;
13795;SDS011;40911;51.552;9.874;2023-05-10T07:43:58;1.48;;;1.00;;
13795;SDS011;40911;51.552;9.874;2023-05-10T07:46:20;1.15;;;1.15;;
13795;SDS011;40911;51.552;9.874;2023-05-10T07:48:41;2.30;;;1.00;;
13795;SDS011;40911;51.552;9.874;2023-05-10T07:51:03;1.00;;;1.00;;
13795;SDS011;40911;51.552;9.874;2023-05-10T07:53:26;1.13;;;1.08;;
13795;SDS011;40911;51.552;9.874;2023-05-10T07:55:51;3.60;;;1.20;;
13795;SDS011;40911;51.552;9.874;2023-05-10T07:58:15;0.90;;;0.90;;
13795;SDS011;40911;51.552;9.874;2023-05-10T08:00:36;1.17;;;1.17;;
13795;SDS011;40911;51.552;9.874;2023-05-10T08:02:59;1.42;;;1.10;;
13795;SDS011;40911;51.552;9.874;2023-05-10T08:05:21;1.10;;;1.10;;
13795;SDS011;40911;51.552;9.874;2023-05-10T08:07:42;1.30;;;1.20;;
13795;SDS011;40911;51.552;9.874;2023-05-10T08:10:04;1.35;;;1.30;;
13795;SDS011;40911;51.552;9.874;2023-05-10T08:12:28;1.15;;;1.05;;
13795;SDS011;40911;51.552;9.874;2023-05-10T08:14:50;1.30;;;1.20;;
13795;SDS011;40911;51.552;9.874;2023-05-10T08:17:11;6.18;;;1.63;;
13795;SDS011;40911;51.552;9.874;2023-05-10T08:19:33;1.23;;;1.13;;
13795;SDS011;40911;51.552;9.874;2023-05-10T08:21:55;1.40;;;1.30;;
13795;SDS011;40911;51.552;9.874;2023-05-10T08:24:17;1.20;;;1.10;;
13795;SDS011;40911;51.552;9.874;2023-05-10T08:26:39;1.10;;;1.10;;
13795;SDS011;40911;51.552;9.874;2023-05-10T08:29:02;1.45;;;1.20;;
13795;SDS011;40911;51.552;9.874;2023-05-10T08:31:24;1.33;;;1.15;;
13795;SDS011;40911;51.552;9.874;2023-05-10T08:33:45;1.30;;;1.20;;
13795;SDS011;40911;51.552;9.874;2023-05-10T08:38:28;1.20;;;1.10;;
13795;SDS011;40911;51.552;9.874;2023-05-10T08:43:16;1.70;;;1.20;;
13795;SDS011;40911;51.552;9.874;2023-05-10T08:45:40;1.45;;;1.35;;
13795;SDS011;40911;51.552;9.874;2023-05-10T08:48:05;2.08;;;1.10;;
13795;SDS011;40911;51.552;9.874;2023-05-10T08:50:27;2.45;;;1.30;;
13795;SDS011;40911;51.552;9.874;2023-05-10T08:52:49;3.42;;;1.40;;
13795;SDS011;40911;51.552;9.874;2023-05-10T08:55:14;3.03;;;1.40;;
13795;SDS011;40911;51.552;9.874;2023-05-10T08:57:36;1.40;;;1.30;;
13795;SDS011;40911;51.552;9.874;2023-05-10T09:02:23;1.67;;;1.20;;
13795;SDS011;40911;51.552;9.874;2023-05-10T09:04:44;1.63;;;1.33;;
13795;SDS011;40911;51.552;9.874;2023-05-10T09:07:06;1.35;;;1.15;;
13795;SDS011;40911;51.552;9.874;2023-05-10T09:09:28;1.10;;;1.00;;
13795;SDS011;40911;51.552;9.874;2023-05-10T09:11:50;1.20;;;1.10;;
13795;SDS011;40911;51.552;9.874;2023-05-10T09:14:13;1.42;;;1.10;;
13795;SDS011;40911;51.552;9.874;2023-05-10T09:16:36;0.95;;;0.88;;
13795;SDS011;40911;51.552;9.874;2023-05-10T09:21:20;1.40;;;0.80;;
13795;SDS011;40911;51.552;9.874;2023-05-10T09:23:42;0.90;;;0.90;;
13795;SDS011;40911;51.552;9.874;2023-05-10T09:26:04;1.08;;;0.80;;
13795;SDS011;40911;51.552;9.874;2023-05-10T09:28:26;1.70;;;1.15;;
13795;SDS011;40911;51.552;9.874;2023-05-10T09:30:52;2.42;;;1.15;;
13795;SDS011;40911;51.552;9.874;2023-05-10T09:33:15;0.98;;;0.90;;
13795;SDS011;40911;51.552;9.874;2023-05-10T09:35:41;3.35;;;1.05;;
13795;SDS011;40911;51.552;9.874;2023-05-10T09:38:04;1.15;;;1.08;;
13795;SDS011;40911;51.552;9.874;2023-05-10T09:40:27;1.00;;;1.00;;
13795;SDS011;40911;51.552;9.874;2023-05-10T09:42:54;1.10;;;1.00;;
13795;SDS011;40911;51.552;9.874;2023-05-10T09:45:17;1.00;;;1.00;;
13795;SDS011;40911;51.552;9.874;2023-05-10T09:47:38;0.98;;;0.98;;
13795;SDS011;40911;51.552;9.874;2023-05-10T09:50:00;1.10;;;1.00;;
13795;SDS011;40911;51.552;9.874;2023-05-10T09:52:25;1.20;;;1.10;;
13795;SDS011;40911;51.552;9.874;2023-05-10T09:54:51;2.75;;;1.00;;
13795;SDS011;40911;51.552;9.874;2023-05-10T09:57:18;1.15;;;0.98;;
13795;SDS011;40911;51.552;9.874;2023-05-10T09:59:42;2.05;;;1.25;;
13795;SDS011;40911;51.552;9.874;2023-05-10T10:02:04;2.13;;;1.20;;
13795;SDS011;40911;51.552;9.874;2023-05-10T10:04:26;1.95;;;1.00;;
13795;SDS011;40911;51.552;9.874;2023-05-10T10:06:57;1.48;;;0.98;;
13795;SDS011;40911;51.552;9.874;2023-05-10T10:09:22;1.83;;;1.20;;
13795;SDS011;40911;51.552;9.874;2023-05-10T10:11:43;3.53;;;1.10;;
13795;SDS011;40911;51.552;9.874;2023-05-10T10:16:27;2.15;;;1.17;;
13795;SDS011;40911;51.552;9.874;2023-05-10T10:18:50;1.08;;;0.98;;
13795;SDS011;40911;51.552;9.874;2023-05-10T10:23:34;1.25;;;0.90;;
13795;SDS011;40911;51.552;9.874;2023-05-10T10:25:58;1.58;;;1.00;;
13795;SDS011;40911;51.552;9.874;2023-05-10T10:28:23;4.63;;;1.00;;
13795;SDS011;40911;51.552;9.874;2023-05-10T10:30:52;1.00;;;0.90;;
13795;SDS011;40911;51.552;9.874;2023-05-10T10:33:30;0.80;;;0.80;;
13795;SDS011;40911;51.552;9.874;2023-05-10T10:36:08;1.00;;;0.98;;
13795;SDS011;40911;51.552;9.874;2023-05-10T10:38:37;5.78;;;1.00;;
13795;SDS011;40911;51.552;9.874;2023-05-10T10:41:28;0.82;;;0.82;;
13795;SDS011;40911;51.552;9.874;2023-05-10T10:47:03;2.10;;;1.00;;
13795;SDS011;40911;51.552;9.874;2023-05-10T10:49:30;2.50;;;1.17;;
13795;SDS011;40911;51.552;9.874;2023-05-10T10:54:51;1.85;;;1.17;;
13795;SDS011;40911;51.552;9.874;2023-05-10T10:57:14;1.98;;;1.20;;
13795;SDS011;40911;51.552;9.874;2023-05-10T10:59:36;4.05;;;1.20;;
13795;SDS011;40911;51.552;9.874;2023-05-10T11:02:03;1.70;;;1.23;;
13795;SDS011;40911;51.552;9.874;2023-05-10T11:06:46;2.38;;;1.70;;
13795;SDS011;40911;51.552;9.874;2023-05-10T11:11:31;2.28;;;1.60;;
13795;SDS011;40911;51.552;9.874;2023-05-10T11:16:23;1.20;;;1.10;;
13795;SDS011;40911;51.552;9.874;2023-05-10T11:18:53;1.70;;;1.40;;
13795;SDS011;40911;51.552;9.874;2023-05-10T11:21:17;1.25;;;1.15;;
13795;SDS011;40911;51.552;9.874;2023-05-10T11:26:10;1.35;;;1.20;;
13795;SDS011;40911;51.552;9.874;2023-05-10T11:28:33;1.10;;;1.00;;
13795;SDS011;40911;51.552;9.874;2023-05-10T11:30:56;3.47;;;1.30;;
13795;SDS011;40911;51.552;9.874;2023-05-10T11:33:19;1.60;;;1.27;;
13795;SDS011;40911;51.552;9.874;2023-05-10T11:35:41;2.83;;;1.25;;
13795;SDS011;40911;51.552;9.874;2023-05-10T11:40:26;1.40;;;1.30;;
13795;SDS011;40911;51.552;9.874;2023-05-10T11:45:09;1.73;;;1.38;;
13795;SDS011;40911;51.552;9.874;2023-05-10T11:47:33;1.13;;;1.10;;
13795;SDS011;40911;51.552;9.874;2023-05-10T11:49:55;2.15;;;1.60;;
13795;SDS011;40911;51.552;9.874;2023-05-10T11:52:18;1.92;;;1.70;;
13795;SDS011;40911;51.552;9.874;2023-05-10T11:54:44;2.20;;;1.70;;
13795;SDS011;40911;51.552;9.874;2023-05-10T11:57:07;2.88;;;2.03;;
13795;SDS011;40911;51.552;9.874;2023-05-10T12:01:50;3.28;;;2.75;;
13795;SDS011;40911;51.552;9.874;2023-05-10T12:04:13;2.80;;;2.28;;
13795;SDS011;40911;51.552;9.874;2023-05-10T12:06:37;2.97;;;2.38;;
13795;SDS011;40911;51.552;9.874;2023-05-10T12:09:01;5.43;;;3.10;;
13795;SDS011;40911;51.552;9.874;2023-05-10T12:11:27;3.55;;;2.55;;
13795;SDS011;40911;51.552;9.874;2023-05-10T12:13:49;3.28;;;2.63;;
13795;SDS011;40911;51.552;9.874;2023-05-10T12:16:15;3.67;;;2.78;;
13795;SDS011;40911;51.552;9.874;2023-05-10T12:18:38;5.05;;;3.20;;
13795;SDS011;40911;51.552;9.874;2023-05-10T12:21:04;3.47;;;2.63;;
13795;SDS011;40911;51.552;9.874;2023-05-10T12:23:26;3.85;;;2.95;;
13795;SDS011;40911;51.552;9.874;2023-05-10T12:28:09;3.53;;;2.60;;
13795;SDS011;40911;51.552;9.874;2023-05-10T12:30:31;4.28;;;3.20;;
13795;SDS011;40911;51.552;9.874;2023-05-10T12:32:59;3.65;;;3.30;;
13795;SDS011;40911;51.552;9.874;2023-05-10T12:35:21;5.07;;;3.70;;
13795;SDS011;40911;51.552;9.874;2023-05-10T12:37:45;4.82;;;3.53;;
13795;SDS011;40911;51.552;9.874;2023-05-10T12:40:08;4.50;;;3.95;;
13795;SDS011;40911;51.552;9.874;2023-05-10T12:42:30;4.30;;;3.80;;
13795;SDS011;40911;51.552;9.874;2023-05-10T12:44:54;4.53;;;3.90;;
13795;SDS011;40911;51.552;9.874;2023-05-10T12:47:16;5.10;;;4.13;;
13795;SDS011;40911;51.552;9.874;2023-05-10T12:51:59;6.43;;;4.70;;
13795;SDS011;40911;51.552;9.874;2023-05-10T12:56:44;5.00;;;4.05;;
13795;SDS011;40911;51.552;9.874;2023-05-10T12:59:05;4.38;;;3.85;;
13795;SDS011;40911;51.552;9.874;2023-05-10T13:01:27;4.55;;;3.30;;
13795;SDS011;40911;51.552;9.874;2023-05-10T13:03:49;4.60;;;4.00;;
13795;SDS011;40911;51.552;9.874;2023-05-10T13:06:11;4.20;;;3.80;;
13795;SDS011;40911;51.552;9.874;2023-05-10T13:08:33;6.07;;;4.30;;
13795;SDS011;40911;51.552;9.874;2023-05-10T13:13:17;5.13;;;4.13;;
13795;SDS011;40911;51.552;9.874;2023-05-10T13:18:00;6.10;;;4.20;;
13795;SDS011;40911;51.552;9.874;2023-05-10T13:20:22;6.93;;;4.85;;
13795;SDS011;40911;51.552;9.874;2023-05-10T13:22:44;5.63;;;4.70;;
13795;SDS011;40911;51.552;9.874;2023-05-10T13:25:05;5.78;;;4.85;;
13795;SDS011;40911;51.552;9.874;2023-05-10T13:27:29;6.03;;;4.05;;
13795;SDS011;40911;51.552;9.874;2023-05-10T13:29:50;4.05;;;3.60;;
13795;SDS011;40911;51.552;9.874;2023-05-10T13:32:12;5.00;;;3.80;;
13795;SDS011;40911;51.552;9.874;2023-05-10T13:34:34;5.13;;;4.25;;
13795;SDS011;40911;51.552;9.874;2023-05-10T13:36:56;6.05;;;4.05;;
13795;SDS011;40911;51.552;9.874;2023-05-10T13:39:18;4.97;;;3.60;;
13795;SDS011;40911;51.552;9.874;2023-05-10T13:41:39;4.10;;;3.70;;
13795;SDS011;40911;51.552;9.874;2023-05-10T13:44:02;5.53;;;3.80;;
13795;SDS011;40911;51.552;9.874;2023-05-10T13:46:24;4.43;;;3.58;;
13795;SDS011;40911;51.552;9.874;2023-05-10T13:48:46;4.28;;;3.78;;
13795;SDS011;40911;51.552;9.874;2023-05-10T13:51:07;5.93;;;4.18;;
13795;SDS011;40911;51.552;9.874;2023-05-10T13:53:29;4.43;;;4.03;;
13795;SDS011;40911;51.552;9.874;2023-05-10T13:55:51;5.82;;;4.03;;
13795;SDS011;40911;51.552;9.874;2023-05-10T13:58:12;4.28;;;3.88;;
13795;SDS011;40911;51.552;9.874;2023-05-10T14:00:35;6.28;;;4.03;;
13795;SDS011;40911;51.552;9.874;2023-05-10T14:02:57;5.50;;;4.00;;
13795;SDS011;40911;51.552;9.874;2023-05-10T14:05:19;5.43;;;4.50;;
13795;SDS011;40911;51.552;9.874;2023-05-10T14:07:41;4.40;;;4.00;;
13795;SDS011;40911;51.552;9.874;2023-05-10T14:10:02;5.57;;;4.18;;
13795;SDS011;40911;51.552;9.874;2023-05-10T14:12:25;5.72;;;4.30;;
13795;SDS011;40911;51.552;9.874;2023-05-10T14:14:46;6.05;;;4.28;;
13795;SDS011;40911;51.552;9.874;2023-05-10T14:17:09;5.28;;;4.38;;
13795;SDS011;40911;51.552;9.874;2023-05-10T14:19:31;4.88;;;4.38;;
13795;SDS011;40911;51.552;9.874;2023-05-10T14:21:54;4.78;;;4.10;;
13795;SDS011;40911;51.552;9.874;2023-05-10T14:24:15;5.53;;;4.25;;
13795;SDS011;40911;51.552;9.874;2023-05-10T14:26:37;5.30;;;4.22;;
13795;SDS011;40911;51.552;9.874;2023-05-10T14:28:59;5.05;;;4.38;;
13795;SDS011;40911;51.552;9.874;2023-05-10T14:31:20;6.45;;;4.43;;
13795;SDS011;40911;51.552;9.874;2023-05-10T14:33:45;6.68;;;4.72;;
13795;SDS011;40911;51.552;9.874;2023-05-10T14:36:07;6.78;;;4.68;;
13795;SDS011;40911;51.552;9.874;2023-05-10T14:38:29;6.45;;;4.85;;
13795;SDS011;40911;51.552;9.874;2023-05-10T14:43:12;4.85;;;4.30;;
13795;SDS011;40911;51.552;9.874;2023-05-10T14:47:55;5.65;;;4.22;;
13795;SDS011;40911;51.552;9.874;2023-05-10T14:50:18;4.25;;;3.13;;
13795;SDS011;40911;51.552;9.874;2023-05-10T14:52:40;5.50;;;3.20;;
13795;SDS011;40911;51.552;9.874;2023-05-10T14:57:23;3.58;;;2.88;;
13795;SDS011;40911;51.552;9.874;2023-05-10T15:02:06;4.25;;;3.30;;
13795;SDS011;40911;51.552;9.874;2023-05-10T15:04:28;5.03;;;2.80;;
13795;SDS011;40911;51.552;9.874;2023-05-10T15:09:12;2.83;;;2.28;;
13795;SDS011;40911;51.552;9.874;2023-05-10T15:11:35;3.22;;;2.10;;
13795;SDS011;40911;51.552;9.874;2023-05-10T15:16:18;2.53;;;2.30;;
13795;SDS011;40911;51.552;9.874;2023-05-10T15:21:01;2.78;;;2.28;;
13795;SDS011;40911;51.552;9.874;2023-05-10T15:25:46;2.50;;;2.05;;
13795;SDS011;40911;51.552;9.874;2023-05-10T15:28:09;2.42;;;2.22;;
13795;SDS011;40911;51.552;9.874;2023-05-10T15:32:52;3.90;;;2.75;;
13795;SDS011;40911;51.552;9.874;2023-05-10T15:37:36;3.10;;;2.50;;
13795;SDS011;40911;51.552;9.874;2023-05-10T15:42:23;3.97;;;2.60;;
13795;SDS011;40911;51.552;9.874;2023-05-10T15:44:45;3.13;;;2.63;;
13795;SDS011;40911;51.552;9.874;2023-05-10T15:47:10;2.85;;;2.55;;
13795;SDS011;40911;51.552;9.874;2023-05-10T15:51:53;3.35;;;2.70;;
13795;SDS011;40911;51.552;9.874;2023-05-10T15:54:15;6.38;;;3.22;;
13795;SDS011;40911;51.552;9.874;2023-05-10T15:59:00;4.65;;;3.10;;
13795;SDS011;40911;51.552;9.874;2023-05-10T16:01:22;4.65;;;3.35;;
13795;SDS011;40911;51.552;9.874;2023-05-10T16:06:05;4.93;;;3.70;;
13795;SDS011;40911;51.552;9.874;2023-05-10T16:10:49;4.40;;;3.33;;
13795;SDS011;40911;51.552;9.874;2023-05-10T16:13:13;4.55;;;3.63;;
13795;SDS011;40911;51.552;9.874;2023-05-10T16:15:36;5.53;;;4.22;;
13795;SDS011;40911;51.552;9.874;2023-05-10T16:20:18;6.68;;;4.60;;
13795;SDS011;40911;51.552;9.874;2023-05-10T16:25:03;6.68;;;4.72;;
13795;SDS011;40911;51.552;9.874;2023-05-10T16:27:26;8.68;;;5.15;;
13795;SDS011;40911;51.552;9.874;2023-05-10T16:29:50;6.85;;;5.13;;
13795;SDS011;40911;51.552;9.874;2023-05-10T16:32:12;6.38;;;5.00;;
13795;SDS011;40911;51.552;9.874;2023-05-10T16:36:55;7.10;;;4.95;;
13795;SDS011;40911;51.552;9.874;2023-05-10T16:41:38;8.45;;;6.20;;
13795;SDS011;40911;51.552;9.874;2023-05-10T16:46:22;8.43;;;5.85;;
13795;SDS011;40911;51.552;9.874;2023-05-10T16:48:44;29.75;;;17.10;;
13795;SDS011;40911;51.552;9.874;2023-05-10T16:51:05;11.07;;;7.57;;
13795;SDS011;40911;51.552;9.874;2023-05-10T16:53:28;10.05;;;6.60;;
13795;SDS011;40911;51.552;9.874;2023-05-10T16:55:50;8.35;;;7.03;;
13795;SDS011;40911;51.552;9.874;2023-05-10T16:58:11;11.25;;;6.63;;
13795;SDS011;40911;51.552;9.874;2023-05-10T17:05:18;9.40;;;6.18;;
13795;SDS011;40911;51.552;9.874;2023-05-10T17:07:40;7.95;;;5.78;;
13795;SDS011;40911;51.552;9.874;2023-05-10T17:10:02;10.35;;;6.22;;
13795;SDS011;40911;51.552;9.874;2023-05-10T17:12:24;8.90;;;6.43;;
13795;SDS011;40911;51.552;9.874;2023-05-10T17:17:07;11.60;;;7.07;;